Latest Weather Observations for Gannett Cay

IDQ60801

Issued at 7:05 am EST Thursday 31 July 2014 (issued every 30 minutes, with the page automatically refreshed every 10 minutes)

About weather observations | Map of weather stations | Latest weather observations for QLD | Other Formats
Station Details ID: 200831 Name: GANNET CAY Lat: -21.98 Lon: 152.47 Height: 2.3 m
Data from the previous 72 hours. | See also: Recent months for locations in Queensland
Date/Time
EST
Temp
°C
App
Temp
°C
Dew
Point
Rel
Hum
%
Delta-T
°C
Wind Press
QNH
hPa
Press
MSL
hPa
Rain
since 9 am
mm
Dir
 
Spd
km/h
Gust
km/h
Spd
kts
Gust
kts
31/07:00am 21.9 - - - - ENE 24 26 13 14 1019.4 - -
31/06:30am 21.7 - - - - E 22 26 12 14 1019.3 - -
31/06:26am 21.6 - - - - ENE 22 - 12 - - 1019.4 -
31/06:00am 21.7 - - - - ENE 24 28 13 15 1019.2 - -
31/05:30am 21.7 - - - - ENE 20 22 11 12 1019.0 - -
31/05:26am 21.7 - - - - ENE 20 - 11 - - 1019.1 -
31/05:00am 21.8 - - - - ENE 24 28 13 15 1018.9 - -
31/04:30am 21.7 - - - - ENE 20 24 11 13 1019.0 - -
31/04:26am 21.6 - - - - ENE 20 - 11 - - 1019.1 -
31/04:00am 21.5 - - - - ENE 20 24 11 13 1019.0 - -
31/03:30am 21.6 - - - - ENE 22 28 12 15 1018.9 - -
31/03:26am 21.6 - - - - ENE 24 - 13 - - 1018.9 -
31/02:30am 21.5 - - - - ENE 24 28 13 15 1019.0 - -
31/02:26am 21.5 - - - - ENE 24 - 13 - - 1019.1 -
31/02:00am 21.6 - - - - ENE 24 28 13 15 1019.2 - -
31/01:30am 21.6 - - - - ENE 28 32 15 17 1019.3 - -
31/01:26am 21.6 - - - - ENE 28 - 15 - - 1019.4 -
31/01:00am 21.6 - - - - ENE 26 30 14 16 1019.6 - -
31/12:30am 21.5 - - - - NE 26 32 14 17 1019.8 - -
31/12:26am 21.5 - - - - NE 28 - 15 - - 1019.9 -
31/12:00am 21.4 - - - - NE 30 33 16 18 1019.7 - -
 
Date/Time
EST
Temp
°C
App
Temp
°C
Dew
Point
Rel
Hum
%
Delta-T
°C
Wind Press
QNH
hPa
Press
MSL
hPa
Rain
since 9 am
mm
Dir
 
Spd
km/h
Gust
km/h
Spd
kts
Gust
kts
30/11:30pm 21.4 - - - - NE 35 39 19 21 1019.7 - -
30/11:26pm 21.5 - - - - NE 35 - 19 - - 1019.8 -
30/11:00pm 21.6 - - - - NE 33 35 18 19 1019.9 - -
30/10:30pm 21.5 - - - - ENE 28 33 15 18 1020.2 - -
30/10:26pm 21.6 - - - - ENE 30 - 16 - - 1020.3 -
30/10:00pm 21.4 - - - - ENE 24 26 13 14 1020.4 - -
30/09:30pm 20.9 - - - - ENE 17 19 9 10 1020.5 - -
30/09:26pm 20.9 - - - - E 15 - 8 - - 1020.6 -
30/09:00pm 20.6 - - - - ESE 19 22 10 12 1020.7 - -
30/08:30pm 20.6 - - - - ESE 19 20 10 11 1020.5 - -
30/08:26pm 20.8 - - - - ESE 19 - 10 - - 1020.5 -
30/08:00pm 20.7 - - - - SE 19 22 10 12 1020.2 - -
30/07:30pm 20.6 - - - - SE 24 28 13 15 1020.1 - -
30/07:26pm 20.5 - - - - SE 24 - 13 - - 1020.2 -
30/07:00pm 19.8 - - - - SSE 26 33 14 18 1020.0 - -
30/06:30pm 20.2 - - - - ESE 26 28 14 15 1019.9 - -
30/06:26pm 20.3 - - - - ESE 26 - 14 - - 1020.1 -
30/06:00pm 20.8 - - - - SE 26 32 14 17 1019.8 - -
30/05:30pm 20.2 - - - - S 26 28 14 15 1019.7 - -
30/05:26pm 20.1 - - - - S 26 - 14 - - 1019.7 -
30/05:00pm 20.0 - - - - S 30 33 16 18 1019.5 - -
30/04:30pm 20.5 - - - - S 33 37 18 20 1019.4 - -
30/04:26pm 20.4 - - - - S 33 - 18 - - 1019.5 -
30/04:00pm 19.9 - - - - S 33 37 18 20 1019.1 - -
30/03:30pm 19.9 - - - - S 32 35 17 19 1019.2 - -
30/03:26pm 19.8 - - - - S 32 - 17 - - 1019.2 -
30/03:00pm 19.6 - - - - S 33 37 18 20 1019.0 - -
30/02:30pm 20.2 - - - - S 33 37 18 20 1019.1 - -
30/02:26pm 20.0 - - - - S 33 - 18 - - 1019.2 -
30/02:00pm 20.3 - - - - S 32 35 17 19 1019.4 - -
30/01:30pm 20.5 - - - - S 32 37 17 20 1019.8 - -
30/01:26pm 20.4 - - - - SSE 30 - 16 - - 1019.9 -
30/01:00pm 21.0 - - - - SSE 32 35 17 19 1020.1 - -
30/12:30pm 21.1 - - - - SE 30 33 16 18 1020.7 - -
30/12:26pm 20.7 - - - - SE 32 - 17 - - 1020.8 -
30/12:00pm 20.7 - - - - SE 33 37 18 20 1021.0 - -
30/11:30am 20.6 - - - - SE 33 39 18 21 1021.5 - -
30/11:26am 20.6 - - - - ESE 35 - 19 - - 1021.7 -
30/11:00am 21.1 - - - - SE 32 37 17 20 1022.0 - -
30/10:30am 21.1 - - - - SE 30 35 16 19 1022.4 - -
30/10:26am 21.4 - - - - SE 26 - 14 - - 1022.6 -
30/10:00am 21.4 - - - - SE 26 30 14 16 1022.7 - -
30/09:30am 21.0 - - - - SE 28 32 15 17 1022.7 - -
30/09:26am 21.1 - - - - SE 28 - 15 - - 1022.7 -
30/09:00am 21.1 - - - - SSE 26 30 14 16 1022.5 - -
30/08:30am 21.1 - - - - SE 26 30 14 16 1022.5 - -
30/08:26am 21.2 - - - - SE 26 - 14 - - 1022.5 -
30/08:00am 21.5 - - - - SE 22 26 12 14 1022.2 - -
30/07:30am 21.4 - - - - SSE 22 24 12 13 1021.9 - -
30/07:26am 21.4 - - - - SE 20 - 11 - - 1022.0 -
30/07:00am 21.5 - - - - SE 17 19 9 10 1021.5 - -
30/06:30am 21.6 - - - - SE 19 20 10 11 1021.1 - -
30/06:26am 21.7 - - - - SE 19 - 10 - - 1021.2 -
30/06:00am 21.7 - - - - SE 17 19 9 10 1020.7 - -
30/05:30am 21.6 - - - - SE 19 20 10 11 1020.4 - -
30/05:26am 21.6 - - - - SE 19 - 10 - - 1020.5 -
30/05:00am 21.5 - - - - SE 22 24 12 13 1020.2 - -
30/04:30am 21.5 - - - - ESE 17 20 9 11 1020.3 - -
30/04:26am 21.7 - - - - ESE 17 - 9 - - 1020.4 -
30/04:00am 21.4 - - - - E 20 24 11 13 1020.0 - -
30/03:30am 22.2 - - - - ENE 15 17 8 9 1020.0 - -
30/03:26am 22.1 - - - - ENE 17 - 9 - - 1020.0 -
30/02:30am 22.1 - - - - E 7 9 4 5 1019.9 - -
30/02:26am 22.1 - - - - E 4 - 2 - - 1020.0 -
30/02:00am 21.9 - - - - E 11 13 6 7 1020.1 - -
30/01:30am 21.7 - - - - SSE 13 15 7 8 1020.5 - -
30/01:26am 21.7 - - - - SSE 13 - 7 - - 1020.6 -
30/01:00am 21.6 - - - - SE 13 17 7 9 1020.8 - -
30/12:30am 21.7 - - - - SE 15 17 8 9 1021.1 - -
30/12:26am 21.7 - - - - SE 15 - 8 - - 1021.2 -
30/12:00am 22.1 - - - - E 15 17 8 9 1021.2 - -
 
Date/Time
EST
Temp
°C
App
Temp
°C
Dew
Point
Rel
Hum
%
Delta-T
°C
Wind Press
QNH
hPa
Press
MSL
hPa
Rain
since 9 am
mm
Dir
 
Spd
km/h
Gust
km/h
Spd
kts
Gust
kts
29/11:30pm 22.2 - - - - E 17 22 9 12 1021.2 - -
29/11:26pm 22.2 - - - - E 19 - 10 - - 1021.3 -
29/11:00pm 22.1 - - - - E 15 20 8 11 1021.2 - -
29/10:30pm 22.0 - - - - ESE 17 20 9 11 1021.2 - -
29/10:26pm 21.9 - - - - ESE 19 - 10 - - 1021.3 -
29/10:00pm 21.9 - - - - ESE 11 15 6 8 1021.1 - -
29/09:30pm 21.7 - - - - ESE 7 11 4 6 1021.3 - -
29/09:26pm 21.8 - - - - E 9 - 5 - - 1021.4 -
29/09:00pm 21.7 - - - - E 11 13 6 7 1021.3 - -
29/08:30pm 21.5 - - - - SE 11 15 6 8 1021.2 - -
29/08:26pm 21.5 - - - - ESE 11 - 6 - - 1021.3 -
29/08:00pm 21.5 - - - - ESE 15 22 8 12 1021.1 - -
29/07:30pm 21.3 - - - - ESE 13 15 7 8 1020.9 - -
29/07:26pm 21.3 - - - - E 13 - 7 - - 1021.0 -
29/07:00pm 21.3 - - - - ESE 15 17 8 9 1020.8 - -
29/06:30pm 21.5 - - - - E 19 22 10 12 1020.5 - -
29/06:26pm 21.5 - - - - E 19 - 10 - - 1020.6 -
29/06:00pm 21.4 - - - - E 19 24 10 13 1020.4 - -
29/05:30pm 21.5 - - - - ESE 20 24 11 13 1020.2 - -
29/05:26pm 21.6 - - - - ESE 20 - 11 - - 1020.2 -
29/05:00pm 21.9 - - - - ESE 19 22 10 12 1020.0 - -
29/04:30pm 22.0 - - - - ESE 15 22 8 12 1019.8 - -
29/04:26pm 22.2 - - - - ESE 17 - 9 - - 1019.9 -
29/04:00pm 22.4 - - - - ESE 17 20 9 11 1019.6 - -
29/03:30pm 22.4 - - - - ESE 19 24 10 13 1019.6 - -
29/03:26pm 22.3 - - - - ESE 19 - 10 - - 1019.7 -
29/03:00pm 22.1 - - - - ESE 19 22 10 12 1019.6 - -
29/02:30pm 21.8 - - - - SE 22 24 12 13 1019.8 - -
29/02:26pm 21.7 - - - - SSE 22 - 12 - - 1019.9 -
29/02:00pm 21.9 - - - - SSE 19 22 10 12 1019.9 - -
29/01:30pm 22.1 - - - - SE 17 20 9 11 1020.3 - -
29/01:26pm 22.1 - - - - SE 17 - 9 - - 1020.4 -
29/01:00pm 22.0 - - - - SE 17 22 9 12 1020.6 - -
29/12:30pm 22.0 - - - - SE 15 19 8 10 1020.8 - -
29/12:26pm 22.0 - - - - SE 17 - 9 - - 1020.9 -
29/12:00pm 22.0 - - - - SE 17 20 9 11 1021.3 - -
29/11:30am 21.9 - - - - SSE 19 20 10 11 1021.7 - -
29/11:26am 21.8 - - - - SSE 19 - 10 - - 1021.9 -
29/11:00am 21.8 - - - - SSE 20 24 11 13 1022.1 - -
29/10:30am 21.8 - - - - SE 20 26 11 14 1022.4 - -
29/10:26am 21.9 - - - - SE 20 - 11 - - 1022.5 -
29/10:00am 21.8 - - - - SE 19 22 10 12 1022.6 - -
29/09:30am 21.7 - - - - ESE 15 19 8 10 1022.8 - -
29/09:26am 21.7 - - - - ESE 17 - 9 - - 1022.9 -
29/09:00am 21.8 - - - - SSE 11 15 6 8 1022.8 - -
29/08:30am 21.6 - - - - SSE 13 15 7 8 1022.8 - -
29/08:26am 21.6 - - - - SSE 13 - 7 - - 1022.8 -
29/08:00am 21.4 - - - - S 11 15 6 8 1022.6 - -
29/07:30am 21.3 - - - - S 13 15 7 8 1022.3 - -
29/07:26am 21.2 - - - - S 13 - 7 - - 1022.4 -
29/07:00am 21.0 - - - - SSW 17 19 9 10 1021.9 - -
29/06:30am 21.0 - - - - S 17 20 9 11 1021.6 - -
29/06:26am 21.0 - - - - S 15 - 8 - - 1021.7 -
29/06:00am 20.9 - - - - S 15 17 8 9 1021.3 - -
29/05:30am 20.8 - - - - SSW 11 15 6 8 1021.1 - -
29/05:26am 20.8 - - - - SSW 11 - 6 - - 1021.1 -
29/05:00am 20.7 - - - - S 13 15 7 8 1020.9 - -
29/04:30am 20.7 - - - - S 15 17 8 9 1020.6 - -
29/04:26am 20.7 - - - - S 15 - 8 - - 1020.6 -
29/04:00am 20.6 - - - - S 11 13 6 7 1020.3 - -
29/03:30am 20.5 - - - - S 9 11 5 6 1020.3 - -
29/03:26am 20.5 - - - - S 11 - 6 - - 1020.4 -
29/02:30am 20.4 - - - - S 15 17 8 9 1020.3 - -
29/02:26am 20.5 - - - - S 13 - 7 - - 1020.4 -
29/02:00am 20.3 - - - - SSE 11 15 6 8 1020.3 - -
29/01:30am 20.3 - - - - S 11 13 6 7 1020.5 - -
29/01:26am 20.4 - - - - SSE 9 - 5 - - 1020.7 -
29/01:00am 20.2 - - - - SSE 9 13 5 7 1020.8 - -
29/12:30am 20.3 - - - - SE 11 13 6 7 1021.2 - -
29/12:26am 20.3 - - - - ESE 9 - 5 - - 1021.3 -
29/12:00am 20.4 - - - - E 13 17 7 9 1021.3 - -
 
Date/Time
EST
Temp
°C
App
Temp
°C
Dew
Point
Rel
Hum
%
Delta-T
°C
Wind Press
QNH
hPa
Press
MSL
hPa
Rain
since 9 am
mm
Dir
 
Spd
km/h
Gust
km/h
Spd
kts
Gust
kts
28/11:30pm 20.4 - - - - E 9 13 5 7 1021.3 - -
28/11:26pm 20.5 - - - - E 11 - 6 - - 1021.4 -
28/11:00pm 20.5 - - - - ESE 13 19 7 10 1021.5 - -
28/10:30pm 20.6 - - - - ESE 19 24 10 13 1021.4 - -
28/10:26pm 20.6 - - - - E 17 - 9 - - 1021.5 -
28/10:00pm 20.8 - - - - E 15 20 8 11 1021.3 - -
28/09:30pm 20.7 - - - - E 17 24 9 13 1021.5 - -
28/09:26pm 20.8 - - - - E 13 - 7 - - 1021.6 -
28/09:00pm 20.9 - - - - E 17 20 9 11 1021.5 - -
28/08:30pm 20.9 - - - - ESE 22 26 12 14 1021.4 - -
28/08:26pm 20.9 - - - - ESE 22 - 12 - - 1021.5 -
28/08:00pm 21.1 - - - - ESE 19 24 10 13 1021.3 - -
28/07:30pm 21.1 - - - - ESE 20 24 11 13 1021.1 - -
28/07:26pm 21.2 - - - - ESE 20 - 11 - - 1021.2 -
28/07:00pm 21.2 - - - - E 19 20 10 11 1020.9 - -
28/06:30pm 21.2 - - - - ESE 20 24 11 13 1020.6 - -
28/06:26pm 21.3 - - - - ESE 20 - 11 - - 1020.6 -
28/06:00pm 21.2 - - - - ESE 22 26 12 14 1020.3 - -
28/05:30pm 21.3 - - - - ESE 24 26 13 14 1020.1 - -
28/05:26pm 21.4 - - - - ESE 22 - 12 - - 1020.2 -
28/05:00pm 21.6 - - - - ESE 24 28 13 15 1019.8 - -
28/04:30pm 21.8 - - - - ESE 26 30 14 16 1019.7 - -
28/04:26pm 21.8 - - - - ESE 24 - 13 - - 1019.8 -
28/04:00pm 21.9 - - - - ESE 26 30 14 16 1019.6 - -
28/03:30pm 22.0 - - - - ESE 28 32 15 17 1019.5 - -
28/03:26pm 22.0 - - - - ESE 26 - 14 - - 1019.6 -
28/03:00pm 22.1 - - - - SE 28 32 15 17 1019.3 - -
28/02:30pm 22.0 - - - - ESE 28 32 15 17 1019.5 - -
28/02:26pm 22.0 - - - - ESE 28 - 15 - - 1019.7 -
28/02:00pm 22.0 - - - - SE 28 33 15 18 1019.7 - -
28/01:30pm 22.1 - - - - SE 28 32 15 17 1020.0 - -
28/01:26pm 22.2 - - - - SE 28 - 15 - - 1020.1 -
28/01:00pm 21.9 - - - - SE 30 35 16 19 1020.3 - -
28/12:30pm 22.1 - - - - SE 32 35 17 19 1020.7 - -
28/12:26pm 22.1 - - - - SE 30 - 16 - - 1020.8 -
28/12:00pm 22.1 - - - - SE 30 35 16 19 1021.2 - -
28/11:30am 22.1 - - - - SE 28 33 15 18 1021.7 - -
28/11:26am 22.1 - - - - SE 30 - 16 - - 1021.8 -
28/11:00am 21.9 - - - - SE 30 35 16 19 1022.0 - -
28/10:30am 21.9 - - - - ESE 30 35 16 19 1022.5 - -
28/10:26am 21.9 - - - - ESE 28 - 15 - - 1022.6 -
28/10:00am 21.9 - - - - SE 28 33 15 18 1022.7 - -
28/09:30am 21.8 - - - - SE 30 35 16 19 1022.7 - -
28/09:26am 21.7 - - - - SE 30 - 16 - - 1022.9 -
28/09:00am 21.8 - - - - SE 28 33 15 18 1022.7 - -
28/08:30am 21.9 - - - - SE 30 35 16 19 1022.3 - -
28/08:26am 21.8 - - - - SE 30 - 16 - - 1022.4 -
28/08:00am 21.8 - - - - SE 33 39 18 21 1021.9 - -
28/07:30am 21.8 - - - - SE 30 35 16 19 1021.8 - -
28/07:26am 21.9 - - - - SE 28 - 15 - - 1021.8 -

Other Formats:

Comma delimited format used in spreadsheet applications
http://www.bom.gov.au/fwo/IDQ60801/IDQ60801.94379.axf

JavaScript Object Notation format (JSON) in row-major order
http://www.bom.gov.au/fwo/IDQ60801/IDQ60801.94379.json